createdAt,value
2018-02-20T00:02:36.902Z,2.12
2018-02-20T00:17:38.647Z,2.18
2018-02-20T00:32:37.561Z,2.20
2018-02-20T00:47:35.247Z,2.21
2018-02-20T01:02:37.153Z,2.09
2018-02-20T01:17:37.004Z,2.14
2018-02-20T01:32:34.941Z,2.19
2018-02-20T01:47:34.952Z,2.17
2018-02-20T02:02:34.353Z,2.12
2018-02-20T02:17:35.245Z,2.01
2018-02-20T02:32:36.228Z,1.96
2018-02-20T02:47:35.161Z,1.93
2018-02-20T03:02:34.582Z,1.88
2018-02-20T03:17:34.463Z,1.91
2018-02-20T03:32:34.468Z,1.82
2018-02-20T03:47:34.365Z,1.76
2018-02-20T04:02:40.891Z,1.69
2018-02-20T04:17:34.722Z,1.66
2018-02-20T04:32:34.738Z,1.60
2018-02-20T04:47:34.660Z,1.67
2018-02-20T05:02:35.073Z,1.67
2018-02-20T05:17:34.954Z,1.71
2018-02-20T05:32:35.390Z,1.69
2018-02-20T05:47:34.823Z,1.67
2018-02-20T06:02:34.235Z,1.75
2018-02-20T06:17:35.261Z,1.75
2018-02-20T06:32:35.802Z,1.87
2018-02-20T06:47:35.073Z,1.96
2018-02-20T07:02:34.551Z,2.06
2018-02-20T07:17:36.548Z,2.22
2018-02-20T07:32:35.412Z,2.38
2018-02-20T07:47:34.300Z,2.56
2018-02-20T08:02:34.926Z,2.67
2018-02-20T08:17:34.681Z,2.85
2018-02-20T08:32:34.555Z,3.12
2018-02-20T08:47:37.420Z,3.28
2018-02-20T09:02:40.324Z,3.26
2018-02-20T09:17:35.918Z,3.29
2018-02-20T09:32:36.864Z,3.41
2018-02-20T09:47:37.736Z,3.62
2018-02-20T10:02:35.203Z,3.67
2018-02-20T10:17:37.192Z,3.84
2018-02-20T10:32:36.092Z,4.07
2018-02-20T10:47:38.005Z,4.05
2018-02-20T11:02:34.442Z,4.35
2018-02-20T11:17:34.328Z,4.42
2018-02-20T11:32:34.227Z,4.64
2018-02-20T11:47:35.303Z,4.53
2018-02-20T12:02:36.578Z,4.29
2018-02-20T12:17:34.883Z,4.22
2018-02-20T12:32:34.522Z,4.43
2018-02-20T12:47:34.443Z,4.44
2018-02-20T13:02:34.798Z,4.26
2018-02-20T13:17:34.329Z,4.09
2018-02-20T13:32:36.968Z,3.98
2018-02-20T13:47:36.651Z,3.91
2018-02-20T14:02:37.310Z,3.86
2018-02-20T14:17:35.042Z,3.57
2018-02-20T14:32:41.669Z,3.30
2018-02-20T15:02:34.236Z,3.14
2018-02-20T15:17:34.434Z,3.01
2018-02-20T15:32:35.102Z,2.85
2018-02-20T15:47:35.107Z,2.66
2018-02-20T16:02:34.530Z,2.55
2018-02-20T16:17:37.504Z,2.47
2018-02-20T16:32:37.385Z,2.42
2018-02-20T16:47:36.292Z,2.41
2018-02-20T17:02:39.380Z,2.52
2018-02-20T17:17:34.712Z,2.54
2018-02-20T17:32:34.857Z,2.53
2018-02-20T17:47:35.526Z,2.50
2018-02-20T18:02:36.960Z,2.52
2018-02-20T18:17:34.891Z,2.49
2018-02-20T18:32:34.804Z,2.56
2018-02-20T18:47:36.781Z,2.65
2018-02-20T19:02:38.658Z,2.65
2018-02-20T19:17:35.144Z,2.74
2018-02-20T19:32:35.055Z,2.87
2018-02-20T19:47:36.976Z,2.90
2018-02-20T20:02:34.367Z,2.91
2018-02-20T20:17:34.275Z,2.91
2018-02-20T20:32:34.338Z,2.91
2018-02-20T20:47:57.507Z,2.93
2018-02-20T21:02:35.094Z,2.93
2018-02-20T21:17:38.014Z,2.95
2018-02-20T21:32:35.099Z,3.03
2018-02-20T21:47:34.952Z,2.94
2018-02-20T22:02:36.635Z,2.76
2018-02-20T22:17:34.318Z,2.65
2018-02-20T22:32:34.619Z,2.49
2018-02-20T22:47:34.598Z,2.60
2018-02-20T23:02:36.439Z,2.62
2018-02-20T23:17:37.362Z,2.68
2018-02-20T23:32:34.306Z,2.42
2018-02-20T23:47:36.245Z,2.24
